createdAt,value
2017-10-18T00:00:51.013Z,150.5
2017-10-18T00:01:52.053Z,145.8
2017-10-18T00:02:52.844Z,147.0
2017-10-18T00:03:53.577Z,146.7
2017-10-18T00:04:54.354Z,138.1
2017-10-18T00:05:55.182Z,156.7
2017-10-18T00:06:55.917Z,151.1
2017-10-18T00:07:56.735Z,145.2
2017-10-18T00:08:57.463Z,145.8
2017-10-18T00:09:58.263Z,143.7
2017-10-18T00:10:58.993Z,145.9
2017-10-18T00:12:00.034Z,149.9
2017-10-18T00:13:00.833Z,140.7
2017-10-18T00:14:01.578Z,144.2
2017-10-18T00:15:02.360Z,141.4
2017-10-18T00:16:03.097Z,154.8
2017-10-18T00:17:03.823Z,145.2
2017-10-18T00:18:04.622Z,148.6
2017-10-18T00:19:05.362Z,152.3
2017-10-18T00:20:06.111Z,139.7
2017-10-18T00:21:06.849Z,144.6
2017-10-18T00:22:07.694Z,139.7
2017-10-18T00:23:08.427Z,134.8
2017-10-18T00:24:09.180Z,144.9
2017-10-18T00:25:09.892Z,145.4
2017-10-18T00:26:10.635Z,133.8
2017-10-18T00:27:11.493Z,140.2
2017-10-18T00:28:12.222Z,141.7
2017-10-18T00:29:13.038Z,139.1
2017-10-18T00:30:13.842Z,140.5
2017-10-18T00:31:14.560Z,145.3
2017-10-18T00:32:15.292Z,146.2
2017-10-18T00:33:16.022Z,145.6
2017-10-18T00:34:16.764Z,154.2
2017-10-18T00:35:17.494Z,153.0
2017-10-18T00:36:18.314Z,142.1
2017-10-18T00:37:19.411Z,149.4
2017-10-18T00:38:20.143Z,142.4
2017-10-18T00:39:20.964Z,147.9
2017-10-18T00:40:21.704Z,144.9
2017-10-18T00:41:22.482Z,142.8
2017-10-18T00:42:23.213Z,149.7
2017-10-18T00:43:23.941Z,147.2
2017-10-18T00:44:24.727Z,165.9
2017-10-18T00:45:25.473Z,154.3
2017-10-18T00:46:26.242Z,149.7
2017-10-18T00:47:27.092Z,143.8
2017-10-18T00:48:27.860Z,139.6
2017-10-18T00:49:28.592Z,150.3
2017-10-18T00:50:29.322Z,144.2
2017-10-18T00:51:30.055Z,146.3
2017-10-18T00:52:31.177Z,150.0
2017-10-18T00:53:31.972Z,152.6
2017-10-18T00:54:32.702Z,150.7
2017-10-18T00:55:33.429Z,150.2
2017-10-18T00:56:34.165Z,151.4
2017-10-18T00:57:35.012Z,130.3
2017-10-18T00:58:35.747Z,138.8
2017-10-18T00:59:36.528Z,150.4
2017-10-18T01:00:37.265Z,131.6
2017-10-18T01:01:38.062Z,149.4
2017-10-18T01:02:39.103Z,146.3
2017-10-18T01:03:39.846Z,142.4
2017-10-18T01:04:40.643Z,140.5
2017-10-18T01:05:41.372Z,149.4
2017-10-18T01:06:42.102Z,147.8
2017-10-18T01:07:42.944Z,153.4
2017-10-18T01:08:43.749Z,138.8
2017-10-18T01:09:44.578Z,142.1
2017-10-18T01:10:45.362Z,151.4
2017-10-18T01:11:46.094Z,141.4
2017-10-18T01:12:47.007Z,138.7
2017-10-18T01:13:47.803Z,136.1
2017-10-18T01:14:48.593Z,135.5
2017-10-18T01:15:49.401Z,133.1
2017-10-18T01:16:50.143Z,143.0
2017-10-18T01:17:51.329Z,130.4
2017-10-18T01:18:52.067Z,136.3
2017-10-18T01:19:52.803Z,138.1
2017-10-18T01:20:53.543Z,135.8
2017-10-18T01:21:54.358Z,135.4
2017-10-18T01:22:55.163Z,130.2
2017-10-18T01:23:55.960Z,130.2
2017-10-18T01:24:56.693Z,130.1
2017-10-18T01:25:57.423Z,136.9
2017-10-18T01:26:58.146Z,131.7
2017-10-18T01:27:58.883Z,135.2
2017-10-18T01:28:59.606Z,130.3
2017-10-18T01:30:00.394Z,125.6
2017-10-18T01:31:01.204Z,137.2
2017-10-18T01:32:02.007Z,128.3
2017-10-18T01:33:02.819Z,140.0
2017-10-18T01:34:03.543Z,131.0
2017-10-18T01:35:04.386Z,128.9
2017-10-18T01:36:05.153Z,135.8
2017-10-18T01:37:05.962Z,138.3
2017-10-18T01:38:06.694Z,115.8
2017-10-18T01:39:07.432Z,135.7
2017-10-18T01:40:08.570Z,130.1
2017-10-18T01:41:09.364Z,132.9
2017-10-18T01:42:10.102Z,126.5
2017-10-18T01:43:10.835Z,132.3
2017-10-18T01:44:11.575Z,133.0
2017-10-18T01:45:12.753Z,124.0
2017-10-18T01:46:13.473Z,131.9
2017-10-18T01:47:14.212Z,125.2
2017-10-18T01:48:14.952Z,129.0
2017-10-18T01:49:15.700Z,134.2
2017-10-18T01:50:16.472Z,122.6
2017-10-18T01:51:17.212Z,124.3
2017-10-18T01:52:17.952Z,120.2
2017-10-18T01:53:18.702Z,129.5
2017-10-18T01:54:19.439Z,120.8
2017-10-18T01:55:20.948Z,115.9
2017-10-18T01:56:21.695Z,123.9
2017-10-18T01:57:22.430Z,122.3
2017-10-18T01:59:37.445Z,118.3
2017-10-18T02:00:38.307Z,118.7
2017-10-18T02:01:39.045Z,131.5
2017-10-18T02:02:39.854Z,124.5
2017-10-18T02:03:40.673Z,125.7
2017-10-18T02:04:41.434Z,124.6
2017-10-18T02:05:42.206Z,130.2
2017-10-18T02:06:43.001Z,120.2
2017-10-18T02:07:43.689Z,133.5
2017-10-18T02:08:44.427Z,137.2
2017-10-18T02:09:45.203Z,124.6
2017-10-18T02:10:46.058Z,130.3
2017-10-18T02:11:46.839Z,119.4
2017-10-18T02:12:47.639Z,130.1
2017-10-18T02:13:48.359Z,122.0
2017-10-18T02:14:49.104Z,123.1
2017-10-18T02:15:49.889Z,121.6
2017-10-18T02:16:50.630Z,122.4
2017-10-18T02:17:51.420Z,133.0
2017-10-18T02:18:52.154Z,123.0
2017-10-18T02:19:52.954Z,121.7
2017-10-18T02:20:53.793Z,131.8
2017-10-18T02:21:54.506Z,133.5
2017-10-18T02:22:55.320Z,133.1
2017-10-18T02:23:55.987Z,137.3
2017-10-18T02:24:56.720Z,135.3
2017-10-18T02:25:57.514Z,140.7
2017-10-18T02:26:58.259Z,129.2
2017-10-18T02:27:58.989Z,132.5
2017-10-18T02:28:59.787Z,135.5
2017-10-18T02:30:00.548Z,130.4
2017-10-18T02:31:01.387Z,131.7
2017-10-18T02:32:02.123Z,134.5
2017-10-18T02:33:02.857Z,136.6
2017-10-18T02:34:03.586Z,138.6
2017-10-18T02:35:04.331Z,137.9
2017-10-18T02:36:05.157Z,141.5
2017-10-18T02:37:05.889Z,137.2
2017-10-18T02:38:06.683Z,137.0
2017-10-18T02:39:07.487Z,129.4
2017-10-18T02:40:08.228Z,127.0
2017-10-18T02:41:09.386Z,123.2
2017-10-18T02:42:10.118Z,126.2
2017-10-18T02:43:10.852Z,129.3
2017-10-18T02:44:11.650Z,132.5
2017-10-18T02:45:12.411Z,125.2
2017-10-18T02:46:13.237Z,128.0
2017-10-18T02:47:13.971Z,134.5
2017-10-18T02:48:14.804Z,117.7
2017-10-18T02:49:15.580Z,125.6
2017-10-18T02:50:16.385Z,132.6
2017-10-18T02:51:17.166Z,134.8
2017-10-18T02:52:17.910Z,123.9
2017-10-18T02:53:18.638Z,129.6
2017-10-18T02:54:19.383Z,117.9
2017-10-18T02:55:20.190Z,120.8
2017-10-18T02:56:21.392Z,121.8
2017-10-18T02:57:22.192Z,122.9
2017-10-18T02:58:23.013Z,126.8
2017-10-18T02:59:23.820Z,128.5
2017-10-18T03:00:24.558Z,126.1
2017-10-18T03:01:26.060Z,126.9
2017-10-18T03:02:26.811Z,131.0
2017-10-18T03:03:27.534Z,127.4
2017-10-18T03:04:28.350Z,125.8
2017-10-18T03:05:29.076Z,139.0
2017-10-18T03:06:30.171Z,131.3
2017-10-18T03:07:30.932Z,126.1
2017-10-18T03:08:31.677Z,120.1
2017-10-18T03:09:32.411Z,134.4
2017-10-18T03:10:33.190Z,125.8
2017-10-18T03:11:33.922Z,122.9
2017-10-18T03:12:35.140Z,122.5
2017-10-18T03:13:35.932Z,128.3
2017-10-18T03:14:36.681Z,139.7
2017-10-18T03:15:37.512Z,137.8
2017-10-18T03:16:38.252Z,131.9
2017-10-18T03:17:39.030Z,127.1
2017-10-18T03:18:39.856Z,125.5
2017-10-18T03:19:40.620Z,140.0
2017-10-18T03:20:41.401Z,128.4
2017-10-18T03:21:42.125Z,124.3
2017-10-18T03:22:42.963Z,126.4
2017-10-18T03:23:43.688Z,130.4
2017-10-18T03:24:44.415Z,126.4
2017-10-18T03:25:45.150Z,132.8
2017-10-18T03:26:45.885Z,134.8
2017-10-18T03:27:46.659Z,119.1
2017-10-18T03:28:47.432Z,121.2
2017-10-18T03:29:48.230Z,123.8
2017-10-18T03:30:49.042Z,122.3
2017-10-18T03:31:49.779Z,130.6
2017-10-18T03:32:50.590Z,126.0
2017-10-18T03:33:51.317Z,133.6
2017-10-18T03:34:52.061Z,137.4
2017-10-18T03:35:52.787Z,133.8
2017-10-18T03:36:53.528Z,133.4
2017-10-18T03:37:54.574Z,132.9
2017-10-18T03:38:55.381Z,111.4
2017-10-18T03:39:56.125Z,131.3
2017-10-18T03:40:56.852Z,127.7
2017-10-18T03:41:57.669Z,117.2
2017-10-18T03:42:58.481Z,118.1
2017-10-18T03:43:59.207Z,119.6
2017-10-18T03:44:59.967Z,121.9
2017-10-18T03:46:00.752Z,131.7
2017-10-18T03:47:01.487Z,126.8
2017-10-18T03:48:02.531Z,127.2
2017-10-18T03:49:03.271Z,128.0
2017-10-18T03:50:04.004Z,126.7
2017-10-18T03:51:04.820Z,128.5
2017-10-18T03:52:05.562Z,122.2
2017-10-18T03:53:06.347Z,126.5
2017-10-18T03:54:07.171Z,130.1
2017-10-18T03:55:07.903Z,129.7
2017-10-18T03:56:08.633Z,131.1
2017-10-18T03:57:09.373Z,126.1
2017-10-18T03:58:10.231Z,128.9
2017-10-18T03:59:10.972Z,122.7
2017-10-18T04:00:11.701Z,123.6
2017-10-18T04:01:12.447Z,131.5
2017-10-18T04:02:13.247Z,133.9
2017-10-18T04:03:14.142Z,135.8
2017-10-18T04:04:14.930Z,131.4
2017-10-18T04:05:15.669Z,143.9
2017-10-18T04:06:16.467Z,131.1
2017-10-18T04:07:17.257Z,135.7
2017-10-18T04:08:18.093Z,135.1
2017-10-18T04:09:18.898Z,126.1
2017-10-18T04:10:19.626Z,129.6
2017-10-18T04:11:20.370Z,134.3
2017-10-18T04:12:21.170Z,132.3
2017-10-18T04:13:22.318Z,132.7
2017-10-18T04:14:23.069Z,121.7
2017-10-18T04:15:23.809Z,116.3
2017-10-18T04:16:24.597Z,123.4
2017-10-18T04:17:25.331Z,129.2
2017-10-18T04:18:26.360Z,126.8
2017-10-18T04:19:27.088Z,124.9
2017-10-18T04:20:27.819Z,127.1
2017-10-18T04:21:28.641Z,136.5
2017-10-18T04:22:29.376Z,113.3
2017-10-18T04:23:30.211Z,125.3
2017-10-18T04:24:30.951Z,126.5
2017-10-18T04:25:31.737Z,133.0
2017-10-18T04:26:32.495Z,121.3
2017-10-18T04:27:33.284Z,125.2
2017-10-18T04:28:34.129Z,123.0
2017-10-18T04:29:34.954Z,132.8
2017-10-18T04:30:35.756Z,139.0
2017-10-18T04:31:36.561Z,134.8
2017-10-18T04:32:37.299Z,133.1
2017-10-18T04:33:38.136Z,138.9
2017-10-18T04:34:38.927Z,136.7
2017-10-18T04:35:39.668Z,130.1
2017-10-18T04:36:40.414Z,128.4
2017-10-18T04:37:41.187Z,126.8
2017-10-18T04:38:41.958Z,131.1
2017-10-18T04:39:42.691Z,129.8
2017-10-18T04:40:43.419Z,128.7
2017-10-18T04:41:44.151Z,123.7
2017-10-18T04:42:44.897Z,125.4
2017-10-18T04:43:45.751Z,130.1
2017-10-18T04:44:46.487Z,131.9
2017-10-18T04:45:47.217Z,124.3
2017-10-18T04:46:47.966Z,125.3
2017-10-18T04:47:48.709Z,129.4
2017-10-18T04:48:49.602Z,128.5
2017-10-18T04:49:50.418Z,131.3
2017-10-18T04:50:51.147Z,141.8
2017-10-18T04:51:51.947Z,141.9
2017-10-18T04:52:52.737Z,125.6
2017-10-18T04:53:53.520Z,136.1
2017-10-18T04:54:54.272Z,135.4
2017-10-18T04:55:55.100Z,131.0
2017-10-18T04:56:55.827Z,130.5
2017-10-18T04:57:56.566Z,125.3
2017-10-18T04:58:57.358Z,134.1
2017-10-18T04:59:58.098Z,132.6
2017-10-18T05:00:58.847Z,128.6
2017-10-18T05:01:59.598Z,124.8
2017-10-18T05:03:00.343Z,124.8
2017-10-18T05:04:01.152Z,120.4
2017-10-18T05:05:01.901Z,124.6
2017-10-18T05:06:02.658Z,131.9
2017-10-18T05:07:03.387Z,132.3
2017-10-18T05:08:04.123Z,114.8
2017-10-18T05:09:04.908Z,132.0
2017-10-18T05:10:05.752Z,143.0
2017-10-18T05:11:06.501Z,142.7
2017-10-18T05:12:07.242Z,158.4
2017-10-18T05:13:08.061Z,159.0
2017-10-18T05:14:08.792Z,156.9
2017-10-18T05:15:09.519Z,138.3
2017-10-18T05:16:10.265Z,151.3
2017-10-18T05:17:11.101Z,123.3
2017-10-18T05:18:11.844Z,143.8
2017-10-18T05:19:12.652Z,149.0
2017-10-18T05:20:13.392Z,152.8
2017-10-18T05:21:14.188Z,125.9
2017-10-18T05:22:15.243Z,144.9
2017-10-18T05:23:15.959Z,159.1
2017-10-18T05:24:16.785Z,167.5
2017-10-18T05:25:17.597Z,157.2
2017-10-18T05:26:18.320Z,164.1
2017-10-18T05:27:19.190Z,160.1
2017-10-18T05:28:19.922Z,156.9
2017-10-18T05:29:21.415Z,162.8
2017-10-18T05:30:22.154Z,157.0
2017-10-18T05:31:22.952Z,163.8
2017-10-18T05:32:23.701Z,165.9
2017-10-18T05:33:24.443Z,166.3
2017-10-18T05:34:25.688Z,165.0
2017-10-18T05:35:26.428Z,167.6
2017-10-18T05:36:27.158Z,181.8
2017-10-18T05:37:27.888Z,176.7
2017-10-18T05:38:28.701Z,165.7
2017-10-18T05:39:29.550Z,157.3
2017-10-18T05:40:30.287Z,162.4
2017-10-18T05:41:31.022Z,165.0
2017-10-18T05:42:31.834Z,147.2
2017-10-18T05:43:32.581Z,144.2
2017-10-18T05:44:33.334Z,151.9
2017-10-18T05:45:34.107Z,158.2
2017-10-18T05:46:34.853Z,153.1
2017-10-18T05:47:35.578Z,158.4
2017-10-18T05:48:36.317Z,160.7
2017-10-18T05:49:37.098Z,163.0
2017-10-18T05:50:37.904Z,163.8
2017-10-18T05:51:38.646Z,146.7
2017-10-18T05:52:39.404Z,170.3
2017-10-18T05:53:40.130Z,174.3
2017-10-18T05:54:40.854Z,158.9
2017-10-18T05:55:41.667Z,154.2
2017-10-18T05:56:43.134Z,156.5
2017-10-18T05:57:43.975Z,132.4
2017-10-18T05:58:44.771Z,144.3
2017-10-18T05:59:45.502Z,167.4
2017-10-18T06:00:46.268Z,184.0
2017-10-18T06:01:47.087Z,184.2
2017-10-18T06:02:48.888Z,204.3
2017-10-18T06:03:50.002Z,208.6
2017-10-18T06:04:50.748Z,207.2
2017-10-18T06:05:51.478Z,222.3
2017-10-18T06:06:52.235Z,207.6
2017-10-18T06:07:53.009Z,167.6
2017-10-18T06:08:53.737Z,132.9
2017-10-18T06:09:54.585Z,205.5
2017-10-18T06:10:55.321Z,198.9
2017-10-18T06:11:56.046Z,179.8
2017-10-18T06:12:56.779Z,177.2
2017-10-18T06:13:57.526Z,202.3
2017-10-18T06:14:58.709Z,198.6
2017-10-18T06:15:59.523Z,164.2
2017-10-18T06:17:00.261Z,158.6
2017-10-18T06:18:01.012Z,153.5
2017-10-18T06:19:01.804Z,138.3
2017-10-18T06:20:02.882Z,146.4
2017-10-18T06:21:03.620Z,170.0
2017-10-18T06:22:04.369Z,171.9
2017-10-18T06:23:05.112Z,163.7
2017-10-18T06:24:05.862Z,206.6
2017-10-18T06:25:06.647Z,183.8
2017-10-18T06:26:07.407Z,183.6
2017-10-18T06:27:08.185Z,171.9
2017-10-18T06:28:08.927Z,163.6
2017-10-18T06:29:09.668Z,157.0
2017-10-18T06:30:10.788Z,143.5
2017-10-18T06:31:11.531Z,182.8
2017-10-18T06:32:12.264Z,151.1
2017-10-18T06:33:13.071Z,181.3
2017-10-18T06:34:13.807Z,144.3
2017-10-18T06:35:14.908Z,165.1
2017-10-18T06:36:15.652Z,152.9
2017-10-18T06:37:16.395Z,138.7
2017-10-18T06:38:17.190Z,139.0
2017-10-18T06:39:17.988Z,143.7
2017-10-18T06:40:18.782Z,166.1
2017-10-18T06:41:19.521Z,144.3
2017-10-18T06:42:20.265Z,170.7
2017-10-18T06:43:21.061Z,186.9
2017-10-18T06:44:21.789Z,182.6
2017-10-18T06:45:22.581Z,169.7
2017-10-18T06:46:23.325Z,160.0
2017-10-18T06:47:24.101Z,175.2
2017-10-18T06:48:24.841Z,168.7
2017-10-18T06:49:25.590Z,182.9
2017-10-18T06:50:26.751Z,160.0
2017-10-18T06:51:27.540Z,147.9
2017-10-18T06:52:28.287Z,157.9
2017-10-18T06:53:29.020Z,174.3
2017-10-18T06:54:29.828Z,167.9
2017-10-18T06:55:30.738Z,149.2
2017-10-18T06:56:31.480Z,140.3
2017-10-18T06:57:32.217Z,128.5
2017-10-18T06:58:32.958Z,173.5
2017-10-18T06:59:33.758Z,123.7
2017-10-18T07:00:34.839Z,157.3
2017-10-18T07:01:35.577Z,175.0
2017-10-18T07:02:36.327Z,168.3
2017-10-18T07:03:37.123Z,185.3
2017-10-18T07:04:37.937Z,178.6
2017-10-18T07:05:38.878Z,153.7
2017-10-18T07:06:39.679Z,169.4
2017-10-18T07:07:41.422Z,154.7
2017-10-18T07:08:42.450Z,180.6
2017-10-18T07:09:43.257Z,172.6
2017-10-18T07:10:44.043Z,147.3
2017-10-18T07:11:44.861Z,129.3
2017-10-18T07:12:45.682Z,160.2
2017-10-18T07:13:46.424Z,143.3
2017-10-18T07:14:47.236Z,150.7
2017-10-18T07:15:47.980Z,148.5
2017-10-18T07:16:48.718Z,113.9
2017-10-18T07:17:49.473Z,120.2
2017-10-18T07:18:50.214Z,142.2
2017-10-18T07:19:50.956Z,166.1
2017-10-18T07:20:51.807Z,136.2
2017-10-18T07:21:52.691Z,131.3
2017-10-18T07:22:54.130Z,132.5
2017-10-18T07:23:55.100Z,131.2
2017-10-18T07:24:55.836Z,141.1
2017-10-18T07:25:56.630Z,155.4
2017-10-18T07:26:57.381Z,152.5
2017-10-18T07:27:58.190Z,126.6
2017-10-18T07:28:58.918Z,115.0
2017-10-18T07:29:59.659Z,127.2
2017-10-18T07:31:00.513Z,154.0
2017-10-18T07:32:01.252Z,139.9
2017-10-18T07:33:02.066Z,151.1
2017-10-18T07:34:02.860Z,127.1
2017-10-18T07:35:03.616Z,129.0
2017-10-18T07:36:04.762Z,131.6
2017-10-18T07:37:05.555Z,128.5
2017-10-18T07:38:06.306Z,145.8
2017-10-18T07:39:07.128Z,135.0
2017-10-18T07:40:07.900Z,147.7
2017-10-18T07:41:08.858Z,129.7
2017-10-18T07:42:09.597Z,145.8
2017-10-18T07:43:10.341Z,134.1
2017-10-18T07:44:11.085Z,135.2
2017-10-18T07:45:11.861Z,124.5
2017-10-18T07:46:12.709Z,147.9
2017-10-18T07:47:13.492Z,156.1
2017-10-18T07:48:14.236Z,128.2
2017-10-18T07:49:14.977Z,139.4
2017-10-18T07:50:15.743Z,135.4
2017-10-18T07:51:16.952Z,130.1
2017-10-18T07:52:17.688Z,134.2
2017-10-18T07:53:18.428Z,130.8
2017-10-18T07:54:19.174Z,125.6
2017-10-18T07:55:19.917Z,120.3
2017-10-18T07:56:20.707Z,130.2
2017-10-18T07:57:21.457Z,117.4
2017-10-18T07:58:22.263Z,129.9
2017-10-18T07:59:23.013Z,130.5
2017-10-18T08:00:23.835Z,119.8
2017-10-18T08:01:24.671Z,126.2
2017-10-18T08:02:25.477Z,118.9
2017-10-18T08:03:26.250Z,112.3
2017-10-18T08:04:26.992Z,117.7
2017-10-18T08:05:27.722Z,111.7
2017-10-18T08:06:28.467Z,114.5
2017-10-18T08:07:29.307Z,118.3
2017-10-18T08:08:31.202Z,110.4
2017-10-18T08:09:32.297Z,117.1
2017-10-18T08:10:33.262Z,110.2
2017-10-18T08:11:34.011Z,109.9
2017-10-18T08:12:35.211Z,105.3
2017-10-18T08:13:35.949Z,112.8
2017-10-18T08:14:36.679Z,110.8
2017-10-18T08:15:37.499Z,113.3
2017-10-18T08:16:38.340Z,107.7
2017-10-18T08:17:39.404Z,111.5
2017-10-18T08:18:40.197Z,112.4
2017-10-18T08:19:40.938Z,103.2
2017-10-18T08:20:41.710Z,105.0
2017-10-18T08:21:42.454Z,104.0
2017-10-18T08:22:43.244Z,104.3
2017-10-18T08:23:43.973Z,97.3
2017-10-18T08:24:44.718Z,103.3
2017-10-18T08:25:45.458Z,97.0
2017-10-18T08:26:46.268Z,99.1
2017-10-18T08:27:47.349Z,97.0
2017-10-18T08:28:48.078Z,97.8
2017-10-18T08:29:48.821Z,93.8
2017-10-18T08:32:03.836Z,88.2
2017-10-18T08:33:04.926Z,86.0
2017-10-18T08:34:05.659Z,87.8
2017-10-18T08:35:06.401Z,86.9
2017-10-18T08:36:07.134Z,80.7
2017-10-18T08:37:07.954Z,80.1
2017-10-18T08:38:08.762Z,75.5
2017-10-18T08:39:09.550Z,74.2
2017-10-18T08:40:10.371Z,73.8
2017-10-18T08:41:11.068Z,69.0
2017-10-18T08:42:11.819Z,66.4
2017-10-18T08:43:12.620Z,61.7
2017-10-18T08:44:13.362Z,60.4
2017-10-18T08:45:14.104Z,58.2
2017-10-18T08:46:14.910Z,56.6
2017-10-18T08:47:15.731Z,58.5
2017-10-18T08:48:16.523Z,56.8
2017-10-18T08:49:17.258Z,51.7
2017-10-18T08:50:18.076Z,53.5
2017-10-18T08:51:18.808Z,53.7
2017-10-18T08:52:19.541Z,53.7
2017-10-18T08:53:20.367Z,51.3
2017-10-18T08:54:21.109Z,51.0
2017-10-18T08:55:21.851Z,50.2
2017-10-18T08:56:22.646Z,49.3
2017-10-18T08:57:23.366Z,49.5
2017-10-18T08:58:24.225Z,46.3
2017-10-18T08:59:25.029Z,47.6
2017-10-18T09:00:25.765Z,43.6
2017-10-18T09:01:26.513Z,43.8
2017-10-18T09:02:27.247Z,42.8
2017-10-18T09:03:28.052Z,41.2
2017-10-18T09:04:28.852Z,41.3
2017-10-18T09:05:29.598Z,40.0
2017-10-18T09:06:30.397Z,40.0
2017-10-18T09:07:31.166Z,40.8
2017-10-18T09:08:31.943Z,38.9
2017-10-18T09:09:32.750Z,39.7
2017-10-18T09:10:33.617Z,39.0
2017-10-18T09:11:34.349Z,39.2
2017-10-18T09:12:35.161Z,38.8
2017-10-18T09:13:35.907Z,37.6
2017-10-18T09:14:36.722Z,37.0
2017-10-18T09:16:51.808Z,36.2
2017-10-18T09:17:52.611Z,36.3
2017-10-18T09:18:53.398Z,36.2
2017-10-18T09:19:54.149Z,36.6
2017-10-18T09:20:55.319Z,33.9
2017-10-18T09:21:56.121Z,35.3
2017-10-18T09:22:56.870Z,34.0
2017-10-18T09:23:57.607Z,34.5
2017-10-18T09:24:58.358Z,32.5
2017-10-18T09:25:59.198Z,31.3
2017-10-18T09:27:00.008Z,29.6
2017-10-18T09:28:00.750Z,30.3
2017-10-18T09:29:01.495Z,29.9
2017-10-18T09:30:02.306Z,29.6
2017-10-18T09:31:03.096Z,29.8
2017-10-18T09:32:03.920Z,28.8
2017-10-18T09:33:04.660Z,28.8
2017-10-18T09:34:05.393Z,27.5
2017-10-18T09:35:06.131Z,27.3
2017-10-18T09:36:06.921Z,27.2
2017-10-18T09:37:07.657Z,28.0
2017-10-18T09:38:08.412Z,26.3
2017-10-18T09:39:09.199Z,26.6
2017-10-18T09:40:10.017Z,26.8
2017-10-18T09:41:10.797Z,26.1
2017-10-18T09:42:11.950Z,26.4
2017-10-18T09:43:12.762Z,26.7
2017-10-18T09:44:13.575Z,27.6
2017-10-18T09:45:14.306Z,26.7
2017-10-18T09:46:15.061Z,26.3
2017-10-18T09:47:15.890Z,26.6
2017-10-18T09:48:16.628Z,25.7
2017-10-18T09:49:17.436Z,26.7
2017-10-18T09:50:18.183Z,25.9
2017-10-18T09:51:18.966Z,26.2
2017-10-18T09:52:20.074Z,26.2
2017-10-18T09:53:20.797Z,27.4
2017-10-18T09:54:21.542Z,25.9
2017-10-18T09:55:22.335Z,25.9
2017-10-18T09:56:23.126Z,25.9
2017-10-18T09:57:23.926Z,26.4
2017-10-18T09:58:24.686Z,26.4
2017-10-18T09:59:25.476Z,26.4
2017-10-18T10:00:26.285Z,25.5
2017-10-18T10:01:27.071Z,27.5
2017-10-18T10:02:27.906Z,27.2
2017-10-18T10:03:28.648Z,27.5
2017-10-18T10:04:29.466Z,27.2
2017-10-18T10:05:30.210Z,25.4
2017-10-18T10:06:30.977Z,25.4
2017-10-18T10:07:31.861Z,24.5
2017-10-18T10:08:32.592Z,25.9
2017-10-18T10:09:33.346Z,25.5
2017-10-18T10:10:34.147Z,26.3
2017-10-18T10:11:34.886Z,26.2
2017-10-18T10:12:35.661Z,26.6
2017-10-18T10:13:36.491Z,25.5
2017-10-18T10:14:37.262Z,27.0
2017-10-18T10:15:38.081Z,26.1
2017-10-18T10:16:38.823Z,26.3
2017-10-18T10:17:39.942Z,26.5
2017-10-18T10:18:40.762Z,27.5
2017-10-18T10:19:41.515Z,26.6
2017-10-18T10:20:42.317Z,25.2
2017-10-18T10:21:43.073Z,26.8
2017-10-18T10:22:43.957Z,25.7
2017-10-18T10:23:44.728Z,26.1
2017-10-18T10:24:45.522Z,26.2
2017-10-18T10:25:46.334Z,26.5
2017-10-18T10:26:47.088Z,26.9
2017-10-18T10:27:48.281Z,26.7
2017-10-18T10:28:49.018Z,28.7
2017-10-18T10:29:49.764Z,27.9
2017-10-18T10:30:50.517Z,27.7
2017-10-18T10:31:51.313Z,27.9
2017-10-18T10:32:52.111Z,28.6
2017-10-18T10:33:52.865Z,28.4
2017-10-18T10:34:53.678Z,28.8
2017-10-18T10:35:54.431Z,28.8
2017-10-18T10:36:55.177Z,28.9
2017-10-18T10:37:56.051Z,27.9
2017-10-18T10:38:56.799Z,27.3
2017-10-18T10:39:57.612Z,27.6
2017-10-18T10:40:58.348Z,26.2
2017-10-18T10:43:13.550Z,27.3
2017-10-18T10:44:14.299Z,26.0
2017-10-18T10:45:15.120Z,25.1
2017-10-18T10:46:15.899Z,24.7
2017-10-18T10:47:16.649Z,25.0
2017-10-18T10:48:17.530Z,25.3
2017-10-18T10:49:18.330Z,25.2
2017-10-18T10:50:19.149Z,25.4
2017-10-18T10:51:19.908Z,24.1
2017-10-18T10:52:20.772Z,23.6
2017-10-18T10:53:21.640Z,24.1
2017-10-18T10:54:22.472Z,24.1
2017-10-18T10:55:23.303Z,24.2
2017-10-18T10:56:24.099Z,21.8
2017-10-18T10:57:24.910Z,22.1
2017-10-18T10:58:25.782Z,21.9
2017-10-18T10:59:26.534Z,22.9
2017-10-18T11:00:27.338Z,24.0
2017-10-18T11:01:28.086Z,25.2
2017-10-18T11:02:28.937Z,26.2
2017-10-18T11:03:29.711Z,26.8
2017-10-18T11:04:30.443Z,26.1
2017-10-18T11:05:31.286Z,26.7
2017-10-18T11:06:32.087Z,25.7
2017-10-18T11:07:32.838Z,26.1
2017-10-18T11:08:33.580Z,26.2
2017-10-18T11:09:34.321Z,24.9
2017-10-18T11:10:35.541Z,25.6
2017-10-18T11:11:36.285Z,24.8
2017-10-18T11:12:37.021Z,25.4
2017-10-18T11:13:37.748Z,25.2
2017-10-18T11:14:38.483Z,24.1
2017-10-18T11:15:39.356Z,24.7
2017-10-18T11:16:40.145Z,25.4
2017-10-18T11:17:40.880Z,23.7
2017-10-18T11:18:41.641Z,24.9
2017-10-18T11:19:42.432Z,25.3
2017-10-18T11:20:43.220Z,25.1
2017-10-18T11:21:44.036Z,25.1
2017-10-18T11:22:44.778Z,24.1
2017-10-18T11:23:45.572Z,23.8
2017-10-18T11:24:46.388Z,25.3
2017-10-18T11:25:47.228Z,22.6
2017-10-18T11:26:48.029Z,24.8
2017-10-18T11:27:48.862Z,24.5
2017-10-18T11:28:49.657Z,23.4
2017-10-18T11:29:50.406Z,25.2
2017-10-18T11:30:51.165Z,24.7
2017-10-18T11:31:51.915Z,26.5
2017-10-18T11:32:52.710Z,24.0
2017-10-18T11:33:53.463Z,24.4
2017-10-18T11:34:54.327Z,25.4
2017-10-18T11:35:55.073Z,25.7
2017-10-18T11:36:55.807Z,25.4
2017-10-18T11:37:56.542Z,24.7
2017-10-18T11:38:57.317Z,27.1
2017-10-18T11:39:58.106Z,25.2
2017-10-18T11:40:58.848Z,25.2
2017-10-18T11:41:59.592Z,24.2
2017-10-18T11:43:00.452Z,25.6
2017-10-18T11:44:01.198Z,24.5
2017-10-18T11:45:01.997Z,24.6
2017-10-18T11:46:02.742Z,24.8
2017-10-18T11:47:03.538Z,23.4
2017-10-18T11:48:04.362Z,27.5
2017-10-18T11:49:05.212Z,26.4
2017-10-18T11:50:06.231Z,25.4
2017-10-18T11:51:06.971Z,23.3
2017-10-18T11:52:07.703Z,21.0
2017-10-18T11:53:08.436Z,22.6
2017-10-18T11:54:09.181Z,23.2
2017-10-18T11:55:09.964Z,22.8
2017-10-18T11:56:10.715Z,20.8
2017-10-18T11:57:11.463Z,21.7
2017-10-18T11:58:12.274Z,21.0
2017-10-18T11:59:13.056Z,20.9
2017-10-18T12:00:13.905Z,21.3
2017-10-18T12:01:14.707Z,23.0
2017-10-18T12:02:15.456Z,22.7
2017-10-18T12:03:16.192Z,21.7
2017-10-18T12:04:17.031Z,22.1
2017-10-18T12:05:17.900Z,23.0
2017-10-18T12:06:18.652Z,21.6
2017-10-18T12:07:19.468Z,21.7
2017-10-18T12:08:20.270Z,22.5
2017-10-18T12:09:21.016Z,22.0
2017-10-18T12:10:22.166Z,22.8
2017-10-18T12:11:23.220Z,22.5
2017-10-18T12:12:24.081Z,21.6
2017-10-18T12:13:24.831Z,22.1
2017-10-18T12:14:25.536Z,21.4
2017-10-18T12:15:26.632Z,20.5
2017-10-18T12:16:27.383Z,20.7
2017-10-18T12:17:28.167Z,21.7
2017-10-18T12:18:28.995Z,22.5
2017-10-18T12:19:30.231Z,23.4
2017-10-18T12:20:31.839Z,23.2
2017-10-18T12:21:32.587Z,23.9
2017-10-18T12:22:33.292Z,24.5
2017-10-18T12:23:34.121Z,24.6
2017-10-18T12:24:34.814Z,23.7
2017-10-18T12:25:36.349Z,23.7
2017-10-18T12:26:37.138Z,23.4
2017-10-18T12:27:37.898Z,24.2
2017-10-18T12:28:38.661Z,23.0
2017-10-18T12:29:39.401Z,22.9
2017-10-18T12:30:40.337Z,24.2
2017-10-18T12:31:41.191Z,22.1
2017-10-18T12:32:43.187Z,21.1
2017-10-18T12:33:43.867Z,21.4
2017-10-18T12:34:44.697Z,21.8
2017-10-18T12:35:45.514Z,22.9
2017-10-18T12:36:46.616Z,22.6
2017-10-18T12:37:47.649Z,24.4
2017-10-18T12:38:48.467Z,24.4
2017-10-18T12:39:49.215Z,24.7
2017-10-18T12:40:51.756Z,23.9
2017-10-18T12:41:53.436Z,24.5
2017-10-18T12:42:54.473Z,24.5
2017-10-18T12:43:55.346Z,26.4
2017-10-18T12:44:56.213Z,27.1
2017-10-18T12:45:57.452Z,25.7
2017-10-18T12:46:58.260Z,26.7
2017-10-18T12:47:59.080Z,25.5
2017-10-18T12:48:59.829Z,26.1
2017-10-18T12:50:00.625Z,26.3
2017-10-18T12:51:01.531Z,25.6
2017-10-18T12:52:02.480Z,25.4
2017-10-18T12:53:03.208Z,25.9
2017-10-18T12:54:03.948Z,27.0
2017-10-18T12:55:04.767Z,26.4
2017-10-18T12:56:05.714Z,27.1
2017-10-18T12:57:06.574Z,25.6
2017-10-18T12:58:07.347Z,26.2
2017-10-18T12:59:08.108Z,25.4
2017-10-18T13:00:08.903Z,27.5
2017-10-18T13:01:10.100Z,27.1
2017-10-18T13:02:10.825Z,28.6
2017-10-18T13:03:11.618Z,28.3
2017-10-18T13:04:12.436Z,27.5
2017-10-18T13:05:13.204Z,28.9
2017-10-18T13:06:14.081Z,29.1
2017-10-18T13:07:14.901Z,29.5
2017-10-18T13:08:15.646Z,28.7
2017-10-18T13:09:16.432Z,28.5
2017-10-18T13:10:17.185Z,27.3
2017-10-18T13:11:18.045Z,28.5
2017-10-18T13:12:18.848Z,26.5
2017-10-18T13:13:19.608Z,25.9
2017-10-18T13:14:20.422Z,26.4
2017-10-18T13:15:21.211Z,25.9
2017-10-18T13:16:22.069Z,25.5
2017-10-18T13:17:22.887Z,25.6